createdAt,value
2022-11-29T00:01:34.846Z,6.63
2022-11-29T00:04:02.120Z,6.73
2022-11-29T00:06:32.237Z,6.18
2022-11-29T00:09:04.474Z,6.52
2022-11-29T00:11:53.013Z,7.05
2022-11-29T00:14:20.549Z,6.21
2022-11-29T00:17:02.227Z,6.33
2022-11-29T00:19:29.770Z,6.29
2022-11-29T00:21:56.841Z,6.01
2022-11-29T00:24:23.814Z,5.32
2022-11-29T00:26:50.671Z,5.16
2022-11-29T00:29:17.434Z,5.34
2022-11-29T00:31:44.878Z,5.46
2022-11-29T00:34:12.170Z,5.30
2022-11-29T00:36:39.948Z,5.61
2022-11-29T00:39:07.168Z,5.57
2022-11-29T00:41:34.259Z,5.30
2022-11-29T00:44:01.198Z,5.11
2022-11-29T00:46:28.140Z,5.00
2022-11-29T00:48:55.065Z,5.20
2022-11-29T00:51:21.956Z,5.22
2022-11-29T00:53:49.004Z,5.40
2022-11-29T00:56:16.397Z,5.68
2022-11-29T00:58:44.311Z,5.88
2022-11-29T01:01:11.903Z,5.68
2022-11-29T01:03:38.959Z,5.45
2022-11-29T01:06:08.347Z,4.82
2022-11-29T01:08:35.517Z,5.02
2022-11-29T01:11:09.551Z,5.13
2022-11-29T01:13:36.712Z,4.88
2022-11-29T01:16:04.919Z,4.82
2022-11-29T01:18:32.335Z,5.33
2022-11-29T01:21:07.063Z,5.34
2022-11-29T01:23:34.846Z,5.55
2022-11-29T01:26:07.670Z,5.58
2022-11-29T01:28:35.123Z,5.52
2022-11-29T01:31:13.881Z,5.23
2022-11-29T01:33:40.958Z,5.29
2022-11-29T01:36:08.584Z,5.07
2022-11-29T01:38:36.428Z,5.03
2022-11-29T01:41:19.707Z,4.83
2022-11-29T01:44:14.593Z,4.28
2022-11-29T01:46:43.926Z,4.58
2022-11-29T01:49:16.121Z,4.61
2022-11-29T01:51:47.002Z,4.84
2022-11-29T01:54:14.653Z,4.53
2022-11-29T01:56:42.139Z,4.77
2022-11-29T01:59:13.734Z,4.78
2022-11-29T02:01:40.792Z,4.88
2022-11-29T02:04:08.007Z,5.09
2022-11-29T02:06:35.846Z,4.70
2022-11-29T02:09:03.535Z,4.79
2022-11-29T02:11:46.601Z,5.50
2022-11-29T02:14:56.184Z,5.59
2022-11-29T02:17:52.202Z,5.22
2022-11-29T02:20:21.605Z,5.02
2022-11-29T02:23:06.609Z,4.96
2022-11-29T02:25:51.848Z,4.95
2022-11-29T02:29:03.041Z,5.54
2022-11-29T02:31:38.943Z,5.04
2022-11-29T02:34:18.148Z,3.99
2022-11-29T02:36:51.730Z,4.78
2022-11-29T02:39:44.304Z,5.06
2022-11-29T02:42:56.610Z,5.23
2022-11-29T02:45:49.534Z,4.79
2022-11-29T02:48:34.082Z,4.69
2022-11-29T02:51:06.654Z,5.08
2022-11-29T02:53:56.380Z,5.27
2022-11-29T02:56:41.039Z,5.32
2022-11-29T02:59:17.008Z,4.75
2022-11-29T03:01:53.670Z,4.54
2022-11-29T03:05:04.226Z,4.29
2022-11-29T03:07:34.295Z,4.94
2022-11-29T03:10:08.776Z,4.31
2022-11-29T03:12:42.580Z,4.04
2022-11-29T03:15:48.636Z,4.34
2022-11-29T03:18:25.992Z,3.96
2022-11-29T03:20:52.693Z,4.42
2022-11-29T03:23:32.518Z,4.92
2022-11-29T03:26:07.995Z,4.82
2022-11-29T03:28:42.039Z,4.55
2022-11-29T03:31:21.593Z,4.35
2022-11-29T03:34:01.374Z,4.82
2022-11-29T03:36:30.269Z,4.80
2022-11-29T03:39:01.170Z,4.91
2022-11-29T03:41:33.563Z,4.39
2022-11-29T03:44:19.395Z,4.51
2022-11-29T03:47:07.211Z,5.10
2022-11-29T03:49:48.257Z,5.12
2022-11-29T03:52:23.967Z,4.71
2022-11-29T03:55:09.086Z,4.88
2022-11-29T03:57:59.591Z,5.07
2022-11-29T04:00:30.130Z,5.02
2022-11-29T04:03:21.356Z,4.83
2022-11-29T04:06:20.936Z,5.57
2022-11-29T04:08:56.363Z,5.75
2022-11-29T04:12:04.937Z,5.78
2022-11-29T04:14:34.990Z,5.55
2022-11-29T04:17:49.328Z,4.98
2022-11-29T04:20:48.594Z,5.59
2022-11-29T04:23:43.680Z,4.87
2022-11-29T04:26:44.576Z,5.38
2022-11-29T04:29:22.555Z,5.03
2022-11-29T04:32:07.613Z,5.91
2022-11-29T04:34:56.173Z,5.12
2022-11-29T04:37:34.987Z,5.30
2022-11-29T04:40:22.497Z,6.07
2022-11-29T04:43:28.129Z,6.51
2022-11-29T04:46:05.783Z,6.49
2022-11-29T04:48:38.445Z,5.86
2022-11-29T04:51:34.626Z,5.93
2022-11-29T04:54:40.362Z,5.58
2022-11-29T04:57:33.352Z,4.86
2022-11-29T05:00:16.423Z,5.13
2022-11-29T05:02:55.050Z,5.31
2022-11-29T05:05:43.758Z,5.20
2022-11-29T05:08:24.418Z,4.54
2022-11-29T05:10:51.215Z,5.18
2022-11-29T05:13:24.125Z,4.67
2022-11-29T05:16:07.936Z,5.30
2022-11-29T05:19:02.457Z,5.27
2022-11-29T05:21:34.915Z,5.64
2022-11-29T05:24:17.345Z,5.57
2022-11-29T05:27:11.004Z,5.79
2022-11-29T05:29:52.154Z,5.96
2022-11-29T05:32:57.967Z,5.37
2022-11-29T05:35:46.561Z,5.49
2022-11-29T05:38:39.493Z,5.19
2022-11-29T05:41:44.312Z,5.09
2022-11-29T05:44:17.734Z,4.95
2022-11-29T05:46:59.503Z,5.48
2022-11-29T05:49:37.025Z,5.49
2022-11-29T05:52:17.095Z,5.47
2022-11-29T05:55:02.243Z,5.39
2022-11-29T05:57:55.873Z,4.84
2022-11-29T06:00:23.186Z,5.19
2022-11-29T06:03:31.571Z,4.61
2022-11-29T06:06:08.326Z,5.23
2022-11-29T06:09:13.456Z,4.90
2022-11-29T06:11:47.838Z,4.26
2022-11-29T06:14:21.646Z,5.37
2022-11-29T06:17:10.103Z,5.37
2022-11-29T06:19:53.340Z,5.28
2022-11-29T06:22:58.578Z,5.47
2022-11-29T06:25:39.507Z,4.36
2022-11-29T06:28:09.271Z,4.57
2022-11-29T06:30:55.807Z,4.82
2022-11-29T06:33:25.727Z,4.79
2022-11-29T06:36:10.453Z,4.24
2022-11-29T06:38:37.602Z,4.24
2022-11-29T06:41:04.798Z,4.64
2022-11-29T06:43:32.103Z,5.01
2022-11-29T06:46:16.379Z,4.87
2022-11-29T06:49:01.891Z,4.76
2022-11-29T06:51:42.188Z,5.17
2022-11-29T06:54:16.893Z,4.91
2022-11-29T06:56:51.846Z,5.74
2022-11-29T06:59:57.543Z,4.74
2022-11-29T07:02:44.820Z,4.04
2022-11-29T07:05:17.297Z,4.35
2022-11-29T07:07:44.526Z,3.34
2022-11-29T07:10:17.420Z,3.99
2022-11-29T07:12:48.898Z,4.27
2022-11-29T07:15:21.368Z,4.10
2022-11-29T07:18:29.023Z,3.93
2022-11-29T07:21:31.274Z,3.64
2022-11-29T07:24:04.200Z,4.26
2022-11-29T07:26:41.126Z,4.49
2022-11-29T07:29:35.924Z,4.32
2022-11-29T07:32:23.799Z,4.61
2022-11-29T07:34:56.615Z,4.81
2022-11-29T07:37:39.582Z,4.43
2022-11-29T07:40:37.816Z,4.22
2022-11-29T07:43:23.473Z,3.84
2022-11-29T07:45:50.571Z,4.23
2022-11-29T07:48:18.096Z,4.62
2022-11-29T07:50:45.543Z,3.98
2022-11-29T07:53:17.916Z,4.79
2022-11-29T07:55:45.195Z,3.94
2022-11-29T07:58:13.500Z,3.66
2022-11-29T08:00:42.427Z,4.17
2022-11-29T08:03:10.112Z,4.38
2022-11-29T08:05:38.676Z,4.54
2022-11-29T08:08:06.282Z,4.71
2022-11-29T08:10:33.203Z,5.35
2022-11-29T08:13:00.050Z,4.24
2022-11-29T08:15:27.632Z,3.99
2022-11-29T08:17:54.520Z,3.67
2022-11-29T08:20:21.338Z,4.02
2022-11-29T08:23:00.728Z,3.09
2022-11-29T08:25:28.176Z,3.81
2022-11-29T08:27:56.835Z,3.40
2022-11-29T08:30:44.890Z,4.32
2022-11-29T08:33:24.609Z,3.19
2022-11-29T08:35:51.461Z,3.82
2022-11-29T08:38:18.105Z,4.31
2022-11-29T08:40:44.997Z,4.26
2022-11-29T08:43:11.893Z,4.68
2022-11-29T08:45:38.799Z,4.06
2022-11-29T08:48:06.106Z,4.58
2022-11-29T08:50:33.353Z,4.85
2022-11-29T08:53:18.609Z,4.18
2022-11-29T08:55:46.820Z,3.69
2022-11-29T08:58:15.342Z,4.35
2022-11-29T09:00:46.532Z,3.99
2022-11-29T09:03:31.858Z,4.18
2022-11-29T09:05:59.830Z,4.53
2022-11-29T09:08:26.763Z,4.27
2022-11-29T09:10:53.695Z,4.17
2022-11-29T09:13:20.641Z,4.47
2022-11-29T09:15:47.539Z,4.90
2022-11-29T09:18:14.419Z,4.58
2022-11-29T09:20:44.713Z,4.53
2022-11-29T09:23:13.219Z,4.83
2022-11-29T09:25:40.194Z,5.24
2022-11-29T09:28:07.617Z,5.37
2022-11-29T09:30:36.709Z,5.04
2022-11-29T09:33:05.078Z,5.69
2022-11-29T09:35:32.295Z,4.91
2022-11-29T09:37:59.269Z,4.64
2022-11-29T09:40:38.296Z,4.79
2022-11-29T09:43:21.421Z,4.62
2022-11-29T09:45:51.983Z,5.33
2022-11-29T09:48:59.509Z,4.18
2022-11-29T09:51:54.017Z,5.14
2022-11-29T09:55:02.223Z,4.72
2022-11-29T09:57:30.075Z,5.51
2022-11-29T10:00:00.718Z,5.01
2022-11-29T10:02:33.752Z,4.93
2022-11-29T10:05:12.487Z,5.04
2022-11-29T10:08:02.513Z,4.89
2022-11-29T10:10:41.736Z,4.30
2022-11-29T10:13:23.441Z,4.71
2022-11-29T10:15:55.817Z,5.47
2022-11-29T10:18:36.625Z,4.85
2022-11-29T10:21:12.832Z,4.46
2022-11-29T10:23:44.447Z,4.30
2022-11-29T10:26:12.948Z,3.96
2022-11-29T10:28:45.157Z,3.84
2022-11-29T10:31:32.205Z,4.20
2022-11-29T10:34:01.517Z,4.60
2022-11-29T10:36:33.552Z,4.59
2022-11-29T10:39:11.414Z,4.24
2022-11-29T10:41:41.137Z,4.02
2022-11-29T10:44:12.613Z,4.31
2022-11-29T10:46:39.532Z,4.45
2022-11-29T10:49:11.073Z,4.01
2022-11-29T10:51:39.121Z,4.27
2022-11-29T10:54:37.954Z,4.70
2022-11-29T10:57:09.860Z,4.49
2022-11-29T10:59:36.723Z,4.35
2022-11-29T11:02:04.635Z,4.65
2022-11-29T11:04:37.946Z,5.15
2022-11-29T11:07:05.276Z,5.34
2022-11-29T11:09:43.098Z,5.75
2022-11-29T11:12:17.349Z,5.14
2022-11-29T11:14:45.394Z,5.29
2022-11-29T11:17:26.455Z,5.21
2022-11-29T11:20:19.647Z,5.39
2022-11-29T11:22:59.381Z,5.62
2022-11-29T11:25:38.305Z,5.30
2022-11-29T11:28:24.365Z,5.47
2022-11-29T11:30:54.450Z,5.89
2022-11-29T11:33:34.225Z,6.07
2022-11-29T11:36:20.419Z,5.47
2022-11-29T11:38:53.493Z,4.94
2022-11-29T11:41:45.975Z,5.21
2022-11-29T11:44:46.866Z,4.84
2022-11-29T11:47:20.836Z,5.55
2022-11-29T11:49:50.722Z,5.75
2022-11-29T11:52:26.295Z,5.62
2022-11-29T11:55:01.070Z,6.61
2022-11-29T11:57:28.311Z,5.64
2022-11-29T12:00:02.040Z,5.64
2022-11-29T12:02:40.333Z,5.11
2022-11-29T12:05:14.260Z,4.98
2022-11-29T12:08:07.384Z,5.83
2022-11-29T12:10:35.071Z,5.26
2022-11-29T12:13:02.283Z,4.98
2022-11-29T12:15:33.427Z,5.15
2022-11-29T12:18:12.570Z,5.35
2022-11-29T12:21:02.001Z,5.82
2022-11-29T12:23:46.746Z,5.57
2022-11-29T12:26:57.535Z,5.76
2022-11-29T12:29:27.544Z,6.12
2022-11-29T12:32:25.444Z,5.31
2022-11-29T12:35:18.637Z,5.56
2022-11-29T12:37:54.998Z,5.02
2022-11-29T12:40:40.389Z,6.09
2022-11-29T12:43:45.843Z,5.35
2022-11-29T12:46:18.961Z,4.80
2022-11-29T12:49:12.189Z,4.84
2022-11-29T12:52:07.185Z,5.16
2022-11-29T12:54:43.427Z,5.31
2022-11-29T12:57:43.820Z,4.76
2022-11-29T13:00:17.048Z,5.17
2022-11-29T13:03:05.255Z,5.19
2022-11-29T13:05:38.189Z,5.31
2022-11-29T13:08:14.067Z,5.72
2022-11-29T13:10:58.624Z,5.41
2022-11-29T13:13:41.410Z,6.18
2022-11-29T13:16:40.512Z,5.46
2022-11-29T13:19:27.773Z,6.22
2022-11-29T13:22:20.916Z,6.12
2022-11-29T13:24:51.195Z,5.36
2022-11-29T13:27:23.775Z,6.01
2022-11-29T13:29:51.054Z,4.77
2022-11-29T13:32:35.888Z,4.62
2022-11-29T13:35:30.384Z,4.88
2022-11-29T13:38:21.629Z,4.83
2022-11-29T13:40:54.794Z,4.34
2022-11-29T13:43:45.756Z,4.18
2022-11-29T13:46:30.303Z,4.35
2022-11-29T13:48:57.375Z,4.81
2022-11-29T13:51:28.922Z,4.91
2022-11-29T13:53:57.002Z,4.75
2022-11-29T13:56:37.047Z,5.00
2022-11-29T13:59:09.400Z,4.60
2022-11-29T14:01:47.909Z,4.55
2022-11-29T14:04:39.320Z,4.81
2022-11-29T14:07:19.820Z,4.64
2022-11-29T14:09:59.534Z,4.90
2022-11-29T14:12:39.710Z,5.60
2022-11-29T14:15:27.797Z,5.64
2022-11-29T14:18:05.406Z,5.25
2022-11-29T14:20:32.639Z,5.00
2022-11-29T14:23:05.698Z,5.91
2022-11-29T14:25:55.470Z,6.33
2022-11-29T14:28:22.270Z,5.11
2022-11-29T14:30:52.621Z,6.08
2022-11-29T14:33:29.297Z,6.50
2022-11-29T14:36:19.364Z,6.45
2022-11-29T14:38:51.819Z,5.79
2022-11-29T14:41:46.212Z,6.09
2022-11-29T14:44:30.248Z,4.41
2022-11-29T14:47:07.232Z,4.92
2022-11-29T14:49:42.480Z,4.79
2022-11-29T14:52:15.659Z,5.54
2022-11-29T14:55:14.564Z,4.53
2022-11-29T14:57:47.491Z,4.61
2022-11-29T15:00:24.345Z,4.70
2022-11-29T15:02:55.634Z,5.61
2022-11-29T15:05:35.395Z,5.26
2022-11-29T15:08:15.310Z,5.44
2022-11-29T15:10:52.149Z,5.25
2022-11-29T15:13:29.575Z,4.85
2022-11-29T15:16:14.432Z,4.57
2022-11-29T15:19:22.761Z,4.00
2022-11-29T15:21:52.584Z,4.71
2022-11-29T15:24:20.566Z,4.77
2022-11-29T15:27:02.080Z,5.41
2022-11-29T15:29:30.872Z,6.06
2022-11-29T15:32:00.715Z,6.20
2022-11-29T15:34:53.490Z,5.50
2022-11-29T15:37:39.565Z,5.10
2022-11-29T15:40:34.523Z,5.34
2022-11-29T15:43:14.801Z,4.19
2022-11-29T15:45:47.399Z,4.09
2022-11-29T15:48:17.296Z,3.57
2022-11-29T15:50:49.825Z,3.73
2022-11-29T15:53:21.024Z,4.22
2022-11-29T15:55:49.769Z,4.52
2022-11-29T15:58:17.676Z,4.85
2022-11-29T16:00:49.788Z,5.02
2022-11-29T16:03:25.421Z,4.53
2022-11-29T16:06:00.631Z,4.51
2022-11-29T16:08:30.577Z,5.31
2022-11-29T16:10:58.026Z,4.57
2022-11-29T16:13:41.359Z,3.59
2022-11-29T16:16:21.692Z,3.63
2022-11-29T16:18:50.187Z,3.58
2022-11-29T16:21:30.115Z,3.51
2022-11-29T16:23:57.944Z,4.03
2022-11-29T16:26:29.067Z,3.78
2022-11-29T16:28:59.256Z,4.15
2022-11-29T16:31:35.706Z,4.32
2022-11-29T16:34:15.203Z,4.45
2022-11-29T16:36:42.110Z,4.83
2022-11-29T16:39:24.832Z,4.31
2022-11-29T16:42:24.694Z,4.82
2022-11-29T16:45:00.439Z,4.71
2022-11-29T16:47:29.652Z,4.59
2022-11-29T16:50:02.577Z,3.97
2022-11-29T16:52:34.055Z,3.85
2022-11-29T16:55:00.950Z,3.38
2022-11-29T16:57:29.091Z,3.73
2022-11-29T16:59:55.998Z,4.32
2022-11-29T17:02:22.987Z,3.95
2022-11-29T17:04:51.541Z,4.07
2022-11-29T17:07:32.381Z,4.12
2022-11-29T17:09:59.774Z,4.21
2022-11-29T17:12:26.668Z,4.02
2022-11-29T17:14:53.521Z,4.48
2022-11-29T17:17:20.187Z,3.75
2022-11-29T17:19:47.209Z,3.38
2022-11-29T17:22:14.255Z,3.27
2022-11-29T17:24:47.444Z,3.09
2022-11-29T17:27:15.123Z,2.87
2022-11-29T17:29:41.978Z,3.43
2022-11-29T17:32:08.704Z,3.96
2022-11-29T17:34:35.710Z,4.25
2022-11-29T17:37:02.752Z,4.74
2022-11-29T17:39:29.601Z,4.24
2022-11-29T17:41:56.270Z,4.51
2022-11-29T17:44:23.179Z,4.19
2022-11-29T17:46:50.031Z,3.92
2022-11-29T17:49:18.820Z,4.81
2022-11-29T17:51:53.761Z,3.80
2022-11-29T17:54:22.455Z,4.37
2022-11-29T17:56:49.755Z,5.26
2022-11-29T17:59:16.759Z,4.03
2022-11-29T18:01:43.718Z,4.25
2022-11-29T18:04:10.687Z,4.59
2022-11-29T18:06:40.079Z,4.55
2022-11-29T18:09:09.116Z,4.01
2022-11-29T18:11:47.081Z,4.06
2022-11-29T18:14:17.401Z,3.72
2022-11-29T18:16:45.725Z,3.53
2022-11-29T18:19:15.539Z,3.64
2022-11-29T18:21:42.849Z,4.18
2022-11-29T18:24:09.968Z,4.25
2022-11-29T18:26:37.339Z,3.83
2022-11-29T18:29:05.746Z,3.67
2022-11-29T18:31:34.906Z,3.31
2022-11-29T18:34:07.176Z,3.48
2022-11-29T18:36:36.453Z,3.96
2022-11-29T18:39:08.958Z,3.97
2022-11-29T18:41:36.552Z,3.98
2022-11-29T18:44:04.857Z,4.42
2022-11-29T18:46:36.778Z,4.23
2022-11-29T18:49:05.857Z,4.01
2022-11-29T18:51:33.426Z,3.29
2022-11-29T18:54:01.166Z,4.28
2022-11-29T18:56:30.126Z,4.10
2022-11-29T18:59:11.192Z,4.89
2022-11-29T19:01:43.106Z,5.70
2022-11-29T19:04:12.761Z,4.89
2022-11-29T19:06:40.380Z,5.35
2022-11-29T19:09:11.627Z,4.05
2022-11-29T19:11:38.834Z,4.71
2022-11-29T19:14:11.476Z,3.47
2022-11-29T19:16:44.275Z,4.46
2022-11-29T19:19:11.898Z,4.50
2022-11-29T19:21:40.200Z,5.27
2022-11-29T19:24:14.029Z,4.73
2022-11-29T19:26:41.880Z,4.78
2022-11-29T19:29:08.753Z,4.53
2022-11-29T19:31:35.466Z,4.60
2022-11-29T19:34:02.348Z,5.00
2022-11-29T19:36:31.014Z,4.64
2022-11-29T19:39:00.690Z,5.46
2022-11-29T19:41:32.269Z,4.82
2022-11-29T19:44:01.681Z,4.31
2022-11-29T19:46:30.931Z,4.69
2022-11-29T19:48:59.022Z,3.35
2022-11-29T19:51:26.835Z,3.99
2022-11-29T19:54:02.370Z,4.18
2022-11-29T19:56:30.193Z,4.05
2022-11-29T19:58:57.183Z,4.30
2022-11-29T20:01:28.202Z,4.49
2022-11-29T20:03:55.734Z,4.04
2022-11-29T20:06:23.933Z,4.50
2022-11-29T20:08:50.864Z,4.33
2022-11-29T20:11:18.491Z,4.65
2022-11-29T20:13:52.277Z,4.83
2022-11-29T20:16:19.587Z,3.99
2022-11-29T20:18:51.000Z,4.67
2022-11-29T20:21:24.671Z,5.34
2022-11-29T20:23:56.375Z,4.33
2022-11-29T20:26:23.921Z,4.84
2022-11-29T20:28:50.975Z,5.25
2022-11-29T20:31:21.562Z,5.33
2022-11-29T20:33:49.804Z,5.28
2022-11-29T20:36:43.446Z,5.47
2022-11-29T20:39:34.957Z,4.93
2022-11-29T20:42:32.473Z,4.99
2022-11-29T20:45:01.450Z,4.98
2022-11-29T20:47:33.702Z,4.68
2022-11-29T20:50:00.697Z,4.75
2022-11-29T20:52:42.671Z,4.75
2022-11-29T20:55:09.896Z,3.97
2022-11-29T20:57:38.503Z,4.55
2022-11-29T21:00:11.515Z,4.72
2022-11-29T21:02:38.906Z,4.52
2022-11-29T21:05:06.516Z,5.01
2022-11-29T21:07:33.473Z,4.73
2022-11-29T21:10:01.509Z,4.71
2022-11-29T21:12:29.895Z,4.08
2022-11-29T21:14:57.503Z,5.29
2022-11-29T21:17:28.793Z,4.02
2022-11-29T21:20:00.350Z,4.50
2022-11-29T21:22:39.236Z,3.37
2022-11-29T21:25:40.179Z,2.98
2022-11-29T21:28:12.384Z,3.14
2022-11-29T21:30:39.957Z,3.07
2022-11-29T21:33:07.274Z,3.88
2022-11-29T21:35:34.208Z,3.83
2022-11-29T21:38:02.147Z,3.93
2022-11-29T21:40:29.058Z,3.95
2022-11-29T21:42:56.239Z,4.18
2022-11-29T21:45:23.095Z,4.16
2022-11-29T21:47:49.789Z,3.67
2022-11-29T21:50:16.770Z,4.22
2022-11-29T21:52:44.580Z,3.54
2022-11-29T21:55:11.641Z,4.26
2022-11-29T21:57:39.074Z,4.67
2022-11-29T22:00:06.516Z,3.10
2022-11-29T22:02:33.474Z,3.18
2022-11-29T22:05:00.412Z,2.99
2022-11-29T22:07:27.168Z,3.09
2022-11-29T22:09:54.113Z,2.92
2022-11-29T22:12:33.861Z,3.28
2022-11-29T22:15:01.336Z,3.10
2022-11-29T22:17:28.019Z,3.14
2022-11-29T22:19:54.888Z,2.55
2022-11-29T22:22:21.738Z,2.85
2022-11-29T22:24:48.611Z,2.71
2022-11-29T22:27:18.570Z,2.74
2022-11-29T22:29:45.622Z,2.82
2022-11-29T22:32:12.464Z,3.15
2022-11-29T22:34:39.137Z,2.79
2022-11-29T22:37:06.119Z,3.48
2022-11-29T22:39:33.107Z,3.49
2022-11-29T22:41:59.951Z,3.44
2022-11-29T22:44:26.603Z,3.87
2022-11-29T22:46:53.539Z,3.92
2022-11-29T22:49:20.495Z,4.08
2022-11-29T22:51:47.368Z,4.74
2022-11-29T22:54:17.599Z,4.55
2022-11-29T22:56:45.511Z,4.54
2022-11-29T22:59:12.528Z,3.59
2022-11-29T23:01:40.693Z,4.67
2022-11-29T23:04:08.692Z,4.71
2022-11-29T23:06:41.503Z,5.09
2022-11-29T23:09:16.686Z,4.55
2022-11-29T23:11:45.561Z,3.73
2022-11-29T23:14:12.863Z,4.78
2022-11-29T23:16:39.818Z,4.72
2022-11-29T23:19:06.852Z,4.83
2022-11-29T23:21:35.800Z,4.79
2022-11-29T23:24:03.261Z,5.06
2022-11-29T23:26:34.116Z,6.23
2022-11-29T23:29:01.015Z,5.49
2022-11-29T23:31:27.988Z,5.06
2022-11-29T23:33:55.066Z,5.91
2022-11-29T23:36:21.972Z,5.87
2022-11-29T23:38:48.983Z,5.68
2022-11-29T23:41:16.071Z,5.79
2022-11-29T23:43:43.048Z,5.97
2022-11-29T23:46:15.392Z,5.95
2022-11-29T23:48:43.059Z,6.05
2022-11-29T23:51:10.757Z,6.14
2022-11-29T23:53:37.821Z,5.87
2022-11-29T23:56:07.567Z,5.92
2022-11-29T23:58:35.043Z,6.23
